Time;durP1;ratioP1;P1;durP2;ratioP2;P2;SDS_P1;SDS_P2;PMS_P1;PMS_P2;Temp;Humidity;BMP_temperature;BMP_pressure;BME280_temperature;BME280_humidity;BME280_pressure;Samples;Min_cycle;Max_cycle;Signal;HPM_P1;HPM_P2
2022/05/11 00:01:21;;;;;;;5.47;2.13;;;13.50;99.90;;;;;;4997185;28;20054;-74
2022/05/11 00:03:47;;;;;;;4.53;2.30;;;13.50;99.90;;;;;;5014324;28;20046;-74
2022/05/11 00:06:12;;;;;;;3.25;2.13;;;13.60;99.90;;;;;;5030075;28;20100;-74
2022/05/11 00:08:38;;;;;;;6.25;2.45;;;13.60;99.90;;;;;;5029967;28;20073;-74
2022/05/11 00:11:04;;;;;;;5.45;2.30;;;13.70;99.90;;;;;;5014203;28;20049;-74
2022/05/11 00:13:31;;;;;;;6.43;2.25;;;13.80;99.90;;;;;;5013188;28;20046;-74
2022/05/11 00:15:56;;;;;;;4.20;2.10;;;13.80;99.90;;;;;;5014129;28;20090;-74
2022/05/11 00:18:22;;;;;;;3.95;2.10;;;13.80;99.90;;;;;;4996837;28;20450;-74
2022/05/11 00:20:48;;;;;;;5.63;2.30;;;13.90;99.90;;;;;;5013148;28;20045;-74
2022/05/11 00:23:13;;;;;;;5.30;2.10;;;13.90;99.90;;;;;;5014033;28;20052;-74
2022/05/11 00:25:39;;;;;;;4.18;2.17;;;13.90;99.90;;;;;;5013370;28;20141;-74
2022/05/11 00:28:05;;;;;;;5.28;2.20;;;13.80;99.90;;;;;;5014440;28;20042;-74
2022/05/11 00:30:31;;;;;;;4.38;2.28;;;13.90;99.90;;;;;;5013963;28;20394;-74
2022/05/11 00:32:59;;;;;;;5.13;2.47;;;13.90;99.90;;;;;;5013887;28;20050;-74
2022/05/11 00:35:26;;;;;;;5.78;2.28;;;13.90;99.90;;;;;;5013795;28;20042;-74
2022/05/11 00:37:52;;;;;;;6.72;2.30;;;13.90;99.90;;;;;;5013461;28;20556;-75
2022/05/11 00:40:20;;;;;;;4.43;2.40;;;13.90;99.90;;;;;;4996843;28;20075;-75
2022/05/11 00:42:46;;;;;;;5.43;2.38;;;13.90;99.90;;;;;;5029181;28;20065;-75
2022/05/11 00:45:12;;;;;;;4.60;2.30;;;13.90;99.90;;;;;;5013753;28;20058;-74
2022/05/11 00:47:42;;;;;;;3.60;2.13;;;13.90;99.90;;;;;;5013709;28;20054;-74
2022/05/11 00:50:12;;;;;;;7.40;2.95;;;14.00;99.90;;;;;;5014461;28;20153;-74
2022/05/11 00:52:56;;;;;;;6.90;2.90;;;14.00;99.90;;;;;;5013584;28;20046;-74
2022/05/11 00:55:25;;;;;;;4.35;2.30;;;13.90;99.90;;;;;;5014394;28;20050;-74
2022/05/11 00:57:53;;;;;;;4.40;2.65;;;13.80;99.90;;;;;;5012690;28;20049;-74
2022/05/11 01:00:20;;;;;;;6.28;2.60;;;13.80;99.90;;;;;;5012484;28;20131;-74
2022/05/11 01:02:51;;;;;;;5.00;2.40;;;13.70;99.90;;;;;;5017618;28;20092;-73
2022/05/11 01:05:17;;;;;;;4.35;2.45;;;13.70;99.90;;;;;;5017090;28;20041;-74
2022/05/11 01:07:43;;;;;;;4.00;2.47;;;13.70;99.90;;;;;;5017441;28;20064;-74
2022/05/11 01:10:10;;;;;;;5.88;2.83;;;13.70;99.90;;;;;;5017921;28;20104;-74
2022/05/11 01:12:40;;;;;;;7.05;2.78;;;13.70;99.90;;;;;;5017672;28;20137;-74
2022/05/11 01:15:10;;;;;;;4.68;2.67;;;13.70;99.90;;;;;;5017582;28;20077;-74
2022/05/11 01:17:37;;;;;;;4.32;2.50;;;13.60;99.90;;;;;;5018209;28;20041;-74
2022/05/11 01:20:11;;;;;;;3.42;2.45;;;13.60;99.90;;;;;;5017439;28;20446;-74
2022/05/11 01:22:42;;;;;;;5.13;2.75;;;13.60;99.90;;;;;;5017476;28;20125;-74
2022/05/11 01:25:10;;;;;;;6.32;2.97;;;13.50;99.90;;;;;;5016671;28;20038;-74
2022/05/11 01:27:44;;;;;;;5.13;2.97;;;13.60;99.90;;;;;;5018094;28;20081;-74
2022/05/11 01:30:23;;;;;;;5.78;2.97;;;13.50;99.90;;;;;;5017309;28;20056;-74
2022/05/11 01:32:52;;;;;;;5.90;3.22;;;13.50;99.90;;;;;;5017232;28;20045;-73
2022/05/11 01:35:37;;;;;;;6.97;2.72;;;13.50;99.90;;;;;;5016126;28;20042;-74
2022/05/11 01:38:21;;;;;;;6.15;3.08;;;13.60;99.90;;;;;;5017019;28;20046;-74
2022/05/11 01:40:47;;;;;;;7.13;3.47;;;13.50;99.90;;;;;;5016752;28;20062;-74
2022/05/11 01:43:20;;;;;;;6.35;2.90;;;13.50;99.90;;;;;;5016978;28;20480;-74
2022/05/11 01:45:46;;;;;;;4.88;2.90;;;13.50;99.90;;;;;;5016316;28;20124;-74
2022/05/11 01:48:12;;;;;;;4.55;2.85;;;13.50;99.90;;;;;;5015927;28;20050;-74
2022/05/11 01:50:38;;;;;;;4.20;3.00;;;13.50;99.90;;;;;;5016830;28;20058;-74
2022/05/11 01:53:05;;;;;;;5.70;2.88;;;13.50;99.90;;;;;;5016484;28;20509;-74
2022/05/11 01:55:31;;;;;;;5.63;3.38;;;13.40;99.90;;;;;;4983085;28;20045;-74
2022/05/11 01:57:58;;;;;;;5.63;3.17;;;13.40;99.90;;;;;;5016710;28;20056;-73
2022/05/11 02:00:24;;;;;;;6.43;3.00;;;13.40;99.90;;;;;;5017443;28;20041;-74
2022/05/11 02:02:50;;;;;;;6.95;3.33;;;13.40;99.90;;;;;;5016671;28;20111;-74
2022/05/11 02:08:02;;;;;;;5.07;3.03;;;13.40;99.90;;;;;;5016258;28;20054;-74
2022/05/11 02:10:27;;;;;;;5.82;3.50;;;13.40;99.90;;;;;;5016476;28;20054;-73
2022/05/11 02:12:54;;;;;;;4.72;2.95;;;13.50;99.90;;;;;;5014927;28;20115;-74
2022/05/11 02:15:20;;;;;;;6.57;2.70;;;13.50;99.90;;;;;;5015082;28;20062;-73
2022/05/11 02:17:46;;;;;;;6.10;2.88;;;13.50;99.90;;;;;;5016349;28;20072;-73
2022/05/11 02:20:15;;;;;;;4.35;2.95;;;13.50;99.90;;;;;;5016374;28;20058;-73
2022/05/11 02:22:41;;;;;;;4.18;2.75;;;13.50;99.90;;;;;;5015905;28;20505;-73
2022/05/11 02:25:08;;;;;;;4.07;2.67;;;13.60;99.90;;;;;;5016737;28;20061;-73
2022/05/11 02:27:34;;;;;;;6.57;2.88;;;13.50;99.90;;;;;;4999774;28;20080;-73
2022/05/11 02:30:01;;;;;;;4.32;2.88;;;13.60;99.90;;;;;;5015182;28;20046;-73
2022/05/11 02:32:27;;;;;;;4.78;2.95;;;13.60;99.90;;;;;;5014943;28;20046;-73
2022/05/11 02:35:12;;;;;;;5.32;2.92;;;13.60;99.90;;;;;;5015134;28;20381;-73
2022/05/11 02:37:39;;;;;;;6.65;3.05;;;13.60;99.90;;;;;;5001095;28;20050;-73
2022/05/11 02:40:06;;;;;;;5.57;2.95;;;13.60;99.90;;;;;;5016491;28;20046;-73
2022/05/11 02:42:33;;;;;;;5.05;3.03;;;13.50;99.90;;;;;;5014270;28;20093;-74
2022/05/11 02:44:59;;;;;;;5.50;3.05;;;13.60;99.90;;;;;;5015711;28;20073;-74
2022/05/11 02:47:24;;;;;;;4.53;2.60;;;13.50;99.90;;;;;;5014607;28;20489;-73
2022/05/11 02:49:51;;;;;;;5.15;2.85;;;13.50;99.90;;;;;;5016518;28;20050;-74
2022/05/11 02:52:17;;;;;;;6.00;2.88;;;13.50;99.90;;;;;;5014779;28;20080;-74
2022/05/11 02:54:46;;;;;;;3.70;2.47;;;13.50;99.90;;;;;;5015654;28;20092;-74
2022/05/11 02:57:13;;;;;;;5.82;2.85;;;13.40;99.90;;;;;;5014483;28;20065;-74
2022/05/11 02:59:39;;;;;;;4.88;2.50;;;13.50;99.90;;;;;;5014883;28;20474;-74
2022/05/11 03:02:05;;;;;;;7.00;2.88;;;13.50;99.90;;;;;;5030823;28;20080;-73
2022/05/11 03:04:30;;;;;;;4.43;2.92;;;13.50;99.90;;;;;;5014695;28;20054;-73
2022/05/11 03:06:56;;;;;;;4.95;2.60;;;13.50;99.90;;;;;;5015377;28;20474;-74
2022/05/11 03:09:22;;;;;;;7.07;3.30;;;13.50;99.90;;;;;;4997954;28;20133;-74
2022/05/11 03:11:48;;;;;;;4.53;2.75;;;13.50;99.90;;;;;;5014456;28;20076;-74
2022/05/11 03:14:14;;;;;;;5.80;3.05;;;13.50;99.90;;;;;;5014613;28;20536;-74
2022/05/11 03:16:39;;;;;;;6.63;2.90;;;13.50;99.90;;;;;;5015152;28;20041;-74
2022/05/11 03:19:06;;;;;;;5.50;2.60;;;13.50;99.90;;;;;;5014968;28;20408;-73
2022/05/11 03:21:33;;;;;;;5.22;2.63;;;13.50;99.90;;;;;;5015148;28;20050;-73
2022/05/11 03:23:59;;;;;;;4.20;2.50;;;13.60;99.90;;;;;;5014287;28;20376;-73
2022/05/11 03:26:25;;;;;;;5.15;2.65;;;13.50;99.90;;;;;;5015067;28;20042;-73
2022/05/11 03:28:51;;;;;;;4.95;2.70;;;13.50;99.90;;;;;;5015021;28;20456;-73
2022/05/11 03:31:17;;;;;;;5.35;3.50;;;13.50;99.90;;;;;;4998480;28;20048;-74
2022/05/11 03:36:29;;;;;;;5.25;2.53;;;13.50;99.90;;;;;;5014042;28;20112;-73
2022/05/11 03:38:55;;;;;;;6.57;2.90;;;13.50;99.90;;;;;;5014616;28;20061;-74
2022/05/11 03:41:21;;;;;;;5.55;3.08;;;13.40;99.90;;;;;;5015029;28;20058;-74
2022/05/11 03:43:47;;;;;;;5.50;2.75;;;13.40;99.90;;;;;;5013762;28;20466;-74
2022/05/11 03:46:12;;;;;;;6.45;2.70;;;13.40;99.90;;;;;;5014007;28;20062;-74
2022/05/11 03:48:38;;;;;;;5.35;2.45;;;13.40;99.90;;;;;;5029939;28;20042;-73
2022/05/11 03:51:05;;;;;;;4.60;2.63;;;13.30;99.90;;;;;;5014728;28;20057;-74
2022/05/11 03:53:32;;;;;;;6.18;2.65;;;13.30;99.90;;;;;;5014719;28;20062;-74
2022/05/11 03:55:58;;;;;;;8.40;2.80;;;13.30;99.90;;;;;;5015599;28;20053;-74
2022/05/11 03:58:23;;;;;;;4.18;2.63;;;13.40;99.90;;;;;;5013439;28;20042;-74
2022/05/11 04:00:49;;;;;;;6.70;2.53;;;13.40;99.90;;;;;;5013913;28;20049;-74
2022/05/11 04:03:15;;;;;;;7.15;2.80;;;13.40;99.90;;;;;;5014709;28;20042;-74
2022/05/11 04:05:40;;;;;;;9.27;2.97;;;13.40;99.90;;;;;;4997177;28;20406;-74
2022/05/11 04:08:06;;;;;;;6.50;2.65;;;13.40;99.90;;;;;;5013225;28;20054;-74
2022/05/11 04:10:32;;;;;;;6.57;2.72;;;13.40;99.90;;;;;;5014373;28;20046;-74
2022/05/11 04:13:00;;;;;;;6.57;2.67;;;13.40;99.90;;;;;;5013256;28;20081;-74
2022/05/11 04:15:26;;;;;;;9.38;2.97;;;13.40;99.90;;;;;;5014126;28;20092;-74
2022/05/11 04:17:51;;;;;;;7.55;3.55;;;13.40;99.90;;;;;;4997168;28;20086;-74
2022/05/11 04:20:19;;;;;;;6.70;2.85;;;13.40;99.90;;;;;;5013850;28;20046;-74
2022/05/11 04:22:45;;;;;;;5.25;3.08;;;13.40;99.90;;;;;;5014171;28;20482;-74
2022/05/11 04:25:14;;;;;;;5.07;2.95;;;13.40;99.90;;;;;;5012912;28;20100;-74
2022/05/11 04:27:40;;;;;;;4.60;2.30;;;13.40;99.90;;;;;;5029634;28;20099;-74
2022/05/11 04:30:06;;;;;;;5.38;2.80;;;13.40;99.90;;;;;;5013362;28;20085;-74
2022/05/11 04:32:32;;;;;;;5.50;2.53;;;13.40;99.90;;;;;;5013972;28;20046;-74
2022/05/11 04:34:58;;;;;;;5.03;2.47;;;13.40;99.90;;;;;;5013822;28;20048;-74
2022/05/11 04:37:24;;;;;;;4.05;2.55;;;13.40;99.90;;;;;;5013914;28;20049;-74
2022/05/11 04:39:50;;;;;;;5.70;2.88;;;13.40;99.90;;;;;;5012756;28;20050;-73
2022/05/11 04:42:16;;;;;;;5.43;2.90;;;13.50;99.90;;;;;;5012827;28;20050;-74
2022/05/11 04:44:42;;;;;;;5.95;3.00;;;13.50;99.90;;;;;;5012700;28;20065;-74
2022/05/11 04:47:10;;;;;;;5.05;2.90;;;13.50;99.90;;;;;;5013863;28;20046;-74
2022/05/11 04:49:36;;;;;;;5.05;2.97;;;13.50;99.90;;;;;;5013744;28;20052;-74
2022/05/11 04:52:09;;;;;;;3.83;2.58;;;13.50;99.90;;;;;;4996487;28;20046;-74
2022/05/11 04:54:39;;;;;;;6.63;3.47;;;13.50;99.90;;;;;;5013711;28;20133;-74
2022/05/11 04:57:06;;;;;;;6.63;2.70;;;13.50;99.90;;;;;;5012720;28;20056;-74
2022/05/11 04:59:32;;;;;;;4.68;2.92;;;13.50;99.90;;;;;;4996482;28;20046;-74
2022/05/11 05:01:59;;;;;;;5.68;2.92;;;13.50;99.90;;;;;;5013445;28;20050;-74
2022/05/11 05:04:28;;;;;;;7.63;3.50;;;13.60;99.90;;;;;;5013619;28;20056;-73
2022/05/11 05:06:54;;;;;;;8.32;4.43;;;13.60;99.90;;;;;;5012370;28;20096;-73
2022/05/11 05:09:20;;;;;;;6.40;3.72;;;13.60;99.90;;;;;;5013514;28;20136;-69
2022/05/11 05:11:46;;;;;;;8.05;4.50;;;13.70;99.90;;;;;;5013515;28;20153;-69
2022/05/11 05:14:12;;;;;;;7.05;4.22;;;13.70;99.90;;;;;;5013596;28;20045;-69
2022/05/11 05:16:39;;;;;;;10.63;5.55;;;13.80;99.90;;;;;;5013486;28;20050;-69
2022/05/11 05:19:05;;;;;;;12.93;5.70;;;13.90;99.90;;;;;;5014009;28;20046;-69
2022/05/11 05:21:31;;;;;;;11.05;5.72;;;13.90;99.90;;;;;;5012430;28;20050;-70
2022/05/11 05:23:57;;;;;;;11.45;6.72;;;13.90;99.90;;;;;;5013171;28;20046;-71
2022/05/11 05:26:24;;;;;;;9.05;6.28;;;14.00;99.90;;;;;;5012423;28;20520;-70
2022/05/11 05:31:34;;;;;;;9.43;6.45;;;14.10;99.90;;;;;;5013369;28;20429;-70
2022/05/11 05:34:00;;;;;;;12.43;6.85;;;14.10;99.90;;;;;;5013271;28;20184;-70
2022/05/11 05:36:30;;;;;;;12.30;7.40;;;14.10;99.90;;;;;;5028485;28;20045;-70
2022/05/11 05:38:59;;;;;;;10.57;6.22;;;14.20;99.90;;;;;;5013165;28;20053;-71
2022/05/11 05:41:26;;;;;;;10.55;6.15;;;14.20;99.90;;;;;;5011892;28;20491;-71
2022/05/11 05:43:53;;;;;;;8.50;5.70;;;14.20;99.90;;;;;;4995926;28;20068;-70
2022/05/11 05:46:20;;;;;;;9.63;6.30;;;14.20;99.90;;;;;;5013255;28;20104;-70
2022/05/11 05:48:46;;;;;;;9.25;6.25;;;14.20;99.90;;;;;;5016752;28;20060;-71
2022/05/11 05:51:15;;;;;;;9.80;6.78;;;14.30;99.90;;;;;;5032086;28;20129;-70
2022/05/11 05:53:42;;;;;;;9.18;6.57;;;14.40;99.90;;;;;;5016801;28;20084;-70
2022/05/11 05:56:09;;;;;;;12.30;6.40;;;14.50;99.90;;;;;;5015650;28;20509;-70
2022/05/11 05:58:35;;;;;;;10.85;6.20;;;14.50;99.90;;;;;;5015555;28;20394;-70
2022/05/11 06:01:02;;;;;;;11.43;6.30;;;14.60;99.90;;;;;;5015728;28;20137;-72
2022/05/11 06:03:31;;;;;;;7.53;5.22;;;14.70;99.90;;;;;;5016651;28;20050;-70
2022/05/11 06:05:56;;;;;;;10.18;5.28;;;14.70;99.90;;;;;;5015814;28;20475;-70
2022/05/11 06:08:23;;;;;;;9.57;5.53;;;14.70;99.90;;;;;;5015413;28;20049;-70
2022/05/11 06:10:51;;;;;;;8.48;5.63;;;14.70;99.90;;;;;;5016005;28;20128;-71
2022/05/11 06:13:22;;;;;;;9.80;4.75;;;14.70;99.90;;;;;;5016360;28;20065;-70
2022/05/11 06:15:52;;;;;;;7.55;5.20;;;14.80;99.90;;;;;;5015933;28;20057;-70
2022/05/11 06:18:19;;;;;;;10.13;5.50;;;14.80;99.90;;;;;;5017142;28;20088;-71
2022/05/11 06:20:45;;;;;;;10.70;5.65;;;14.80;99.90;;;;;;5016782;28;20053;-70
2022/05/11 06:23:11;;;;;;;8.60;5.53;;;14.90;99.90;;;;;;5015308;28;20069;-70
2022/05/11 06:25:38;;;;;;;10.48;6.05;;;14.90;99.90;;;;;;5015586;28;20038;-71
2022/05/11 06:28:07;;;;;;;9.82;5.72;;;14.90;99.90;;;;;;4999714;28;20139;-70
2022/05/11 06:30:34;;;;;;;14.18;6.05;;;14.90;99.90;;;;;;5015190;28;20046;-70
2022/05/11 06:33:03;;;;;;;9.32;5.30;;;15.00;99.90;;;;;;5016696;28;20045;-70
2022/05/11 06:35:29;;;;;;;6.95;4.50;;;15.00;99.90;;;;;;5016705;28;20378;-71
2022/05/11 06:37:57;;;;;;;5.30;3.90;;;15.10;99.90;;;;;;5014522;28;20053;-71
2022/05/11 06:40:23;;;;;;;6.38;3.83;;;15.10;99.90;;;;;;5015040;28;20057;-70
2022/05/11 06:42:49;;;;;;;7.40;4.22;;;15.20;99.90;;;;;;5015928;28;20133;-71
2022/05/11 06:45:16;;;;;;;7.47;3.75;;;15.30;99.90;;;;;;5015850;28;20107;-70
2022/05/11 06:47:41;;;;;;;7.22;3.90;;;15.40;99.90;;;;;;5031902;28;20045;-71
2022/05/11 06:50:08;;;;;;;6.50;3.67;;;15.50;99.90;;;;;;5015128;28;20052;-71
2022/05/11 06:52:35;;;;;;;6.75;3.40;;;15.60;99.90;;;;;;5014829;28;20125;-71
2022/05/11 07:00:31;;;;;;;5.10;3.20;;;15.90;99.90;;;;;;5001106;28;20494;-72
2022/05/11 07:02:57;;;;;;;7.47;2.80;;;16.10;99.90;;;;;;5013952;28;20104;-71
2022/05/11 07:05:23;;;;;;;6.18;3.10;;;16.10;99.90;;;;;;5014448;28;20050;-71
2022/05/11 07:07:51;;;;;;;5.50;2.88;;;16.20;99.90;;;;;;5015306;28;20054;-71
2022/05/11 07:10:17;;;;;;;7.53;2.75;;;16.20;99.90;;;;;;5016117;28;20046;-72
2022/05/11 07:12:48;;;;;;;7.53;3.80;;;16.40;99.90;;;;;;5014542;28;20437;-70
2022/05/11 07:15:18;;;;;;;4.68;2.33;;;16.50;99.90;;;;;;5015207;28;20042;-70
2022/05/11 07:17:52;;;;;;;4.95;2.22;;;16.70;99.90;;;;;;5014499;28;20046;-71
2022/05/11 07:20:22;;;;;;;4.32;2.30;;;16.70;99.90;;;;;;5014013;28;20046;-70
2022/05/11 07:22:47;;;;;;;6.60;2.83;;;16.60;99.90;;;;;;5014993;28;20061;-70
2022/05/11 07:25:16;;;;;;;6.25;1.90;;;16.60;99.90;;;;;;5014650;28;20050;-70
2022/05/11 07:27:44;;;;;;;5.70;2.25;;;16.60;99.90;;;;;;5015177;28;20501;-72
2022/05/11 07:30:14;;;;;;;6.43;2.22;;;16.60;99.90;;;;;;5014204;28;20405;-71
2022/05/11 07:32:40;;;;;;;6.47;2.05;;;16.50;99.90;;;;;;5014533;28;20057;-72
2022/05/11 07:35:06;;;;;;;6.30;1.90;;;16.60;99.90;;;;;;4982058;28;20046;-72
2022/05/11 07:37:32;;;;;;;3.55;1.70;;;16.60;99.90;;;;;;5014842;28;20049;-70
2022/05/11 07:39:59;;;;;;;4.22;1.70;;;16.70;99.90;;;;;;4998272;28;20471;-71
2022/05/11 07:42:27;;;;;;;4.80;2.00;;;16.70;99.90;;;;;;5013028;28;20058;-71
2022/05/11 07:44:52;;;;;;;4.68;1.90;;;16.80;99.90;;;;;;5014218;28;20085;-71
2022/05/11 07:47:20;;;;;;;4.13;2.20;;;17.00;99.90;;;;;;5013556;28;20509;-74
2022/05/11 07:49:45;;;;;;;2.63;1.88;;;17.10;99.90;;;;;;5014621;28;20141;-74
2022/05/11 07:52:11;;;;;;;4.40;1.85;;;17.20;99.90;;;;;;5014418;28;20435;-74
2022/05/11 07:54:38;;;;;;;3.88;1.50;;;17.20;99.90;;;;;;5013878;28;20054;-74
2022/05/11 07:59:57;;;;;;;7.78;1.60;;;17.20;99.90;;;;;;5013713;28;20054;-74
2022/05/11 08:02:32;;;;;;;4.43;1.35;;;17.10;99.90;;;;;;5013708;28;20112;-72
2022/05/11 08:05:01;;;;;;;5.07;1.53;;;17.10;99.90;;;;;;5013642;28;20081;-73
2022/05/11 08:07:34;;;;;;;5.82;1.85;;;17.00;99.90;;;;;;5014212;28;20042;-74
2022/05/11 08:10:00;;;;;;;3.67;1.60;;;17.00;99.90;;;;;;5013618;28;20104;-72
2022/05/11 08:12:27;;;;;;;3.95;1.50;;;17.00;99.90;;;;;;5014000;28;20443;-72
2022/05/11 08:14:53;;;;;;;4.25;1.30;;;17.00;99.90;;;;;;5014144;28;20061;-74
2022/05/11 08:17:25;;;;;;;5.22;1.50;;;17.00;99.90;;;;;;5012818;28;20470;-72
2022/05/11 08:19:51;;;;;;;2.90;1.30;;;16.90;99.90;;;;;;5014112;28;20092;-74
2022/05/11 08:22:18;;;;;;;4.22;1.70;;;16.90;99.90;;;;;;5014806;28;20081;-73
2022/05/11 08:24:45;;;;;;;2.50;1.40;;;17.10;99.90;;;;;;5014729;28;20129;-72
2022/05/11 08:27:11;;;;;;;5.63;1.65;;;17.30;99.90;;;;;;5013598;28;20121;-74
2022/05/11 08:35:06;;;;;;;4.43;1.73;;;17.80;99.90;;;;;;5013124;28;20493;-73
2022/05/11 08:37:33;;;;;;;3.60;1.55;;;17.90;99.90;;;;;;5012583;28;20046;-72
2022/05/11 08:39:58;;;;;;;4.88;1.75;;;18.00;99.90;;;;;;5012701;28;20402;-74
2022/05/11 08:42:26;;;;;;;3.67;1.40;;;18.00;99.90;;;;;;5014345;28;20056;-73
2022/05/11 08:44:51;;;;;;;4.75;1.40;;;17.90;99.90;;;;;;5013046;28;20470;-74
2022/05/11 08:47:46;;;;;;;4.22;1.10;;;18.00;99.90;;;;;;5013031;28;20092;-74
2022/05/11 08:50:16;;;;;;;3.70;1.05;;;18.10;99.90;;;;;;4997238;28;20046;-73
2022/05/11 08:53:03;;;;;;;3.35;1.00;;;18.20;99.90;;;;;;5013193;28;20351;-74
2022/05/11 08:55:50;;;;;;;3.45;1.20;;;18.20;99.90;;;;;;5014143;28;20041;-73
2022/05/11 08:58:27;;;;;;;;;;;18.10;99.90;;;;;;5014009;28;20118;-74
2022/05/11 09:00:53;;;;;;;;;;;18.20;99.90;;;;;;5013018;28;20388;-73
2022/05/11 09:03:41;;;;;;;3.45;0.93;;;18.30;99.90;;;;;;5012615;28;19922;-74
2022/05/11 09:06:15;;;;;;;2.55;1.20;;;18.40;99.90;;;;;;5013618;28;20041;-74
2022/05/11 09:08:41;;;;;;;2.40;1.05;;;18.40;99.90;;;;;;5013516;28;20261;-74
2022/05/11 09:11:10;;;;;;;3.20;1.20;;;18.10;99.90;;;;;;5012582;28;20159;-74
2022/05/11 09:13:38;;;;;;;4.18;1.10;;;18.10;99.90;;;;;;5013963;28;20049;-73
2022/05/11 09:16:06;;;;;;;3.75;0.98;;;18.10;99.90;;;;;;4996172;28;20042;-74
2022/05/11 09:18:31;;;;;;;2.72;0.90;;;18.20;99.90;;;;;;4996140;28;20437;-74
2022/05/11 09:21:00;;;;;;;6.85;1.25;;;18.30;99.90;;;;;;5012166;28;20046;-74
2022/05/11 09:23:36;;;;;;;2.90;1.13;;;18.40;99.90;;;;;;5016680;28;20085;-73
2022/05/11 09:26:07;;;;;;;5.05;1.85;;;18.50;99.90;;;;;;5017098;28;20049;-73
2022/05/11 09:28:36;;;;;;;4.65;1.50;;;18.60;99.90;;;;;;5019507;28;20068;-74
2022/05/11 09:31:11;;;;;;;4.10;1.40;;;18.70;99.90;;;;;;5016337;28;20102;-73
2022/05/11 09:33:59;;;;;;;5.70;1.30;;;18.70;99.90;;;;;;5017072;28;20359;-76
2022/05/11 09:36:37;;;;;;;5.55;1.50;;;18.80;99.90;;;;;;5016644;28;20053;-73
2022/05/11 09:39:14;;;;;;;5.15;1.35;;;18.90;99.90;;;;;;5017209;28;20414;-75
2022/05/11 09:41:50;;;;;;;3.55;1.27;;;18.80;99.90;;;;;;5016985;28;20149;-74
2022/05/11 09:44:20;;;;;;;2.95;1.17;;;18.80;99.90;;;;;;5016570;28;20054;-73
2022/05/11 09:46:46;;;;;;;5.40;1.25;;;18.80;99.90;;;;;;5016853;28;20050;-74
2022/05/11 09:49:15;;;;;;;4.20;1.27;;;18.70;99.90;;;;;;5017145;28;20084;-75
2022/05/11 09:51:44;;;;;;;3.17;1.05;;;18.80;99.90;;;;;;5016828;28;20057;-74
2022/05/11 09:54:28;;;;;;;5.13;1.20;;;18.80;99.90;;;;;;5032036;28;20140;-75
2022/05/11 09:57:01;;;;;;;3.58;1.20;;;19.00;99.90;;;;;;5016441;28;20394;-74
2022/05/11 09:59:37;;;;;;;3.50;1.30;;;19.10;99.90;;;;;;5016716;28;20096;-73
2022/05/11 10:02:32;;;;;;;4.78;1.10;;;19.20;99.90;;;;;;5016455;28;20054;-74
2022/05/11 10:05:07;;;;;;;2.55;0.80;;;19.40;99.90;;;;;;5016424;28;20116;-74
2022/05/11 10:07:49;;;;;;;3.03;0.80;;;19.30;99.90;;;;;;5015554;28;20073;-75
2022/05/11 10:10:16;;;;;;;3.80;1.40;;;19.20;99.90;;;;;;5016311;28;20050;-74
2022/05/11 10:12:43;;;;;;;4.68;1.30;;;19.20;99.90;;;;;;5015190;28;20107;-73
2022/05/11 10:24:03;;;;;;;3.10;1.10;;;19.40;99.90;;;;;;5016796;28;20086;-75
2022/05/11 10:26:42;;;;;;;2.42;1.00;;;19.30;99.90;;;;;;5015335;28;20101;-73
2022/05/11 10:29:18;;;;;;;2.45;0.80;;;19.30;99.90;;;;;;5016262;28;20045;-74
2022/05/11 10:31:52;;;;;;;;;;;19.30;99.90;;;;;;5015827;28;20053;-75
2022/05/11 10:34:26;;;;;;;5.35;0.90;;;19.20;99.90;;;;;;5031106;28;19921;-74
2022/05/11 10:37:15;;;;;;;4.85;1.10;;;19.20;99.90;;;;;;5014782;28;20046;-74
2022/05/11 10:40:02;;;;;;;3.53;0.95;;;19.40;99.90;;;;;;5015166;28;20134;-74
2022/05/11 10:42:37;;;;;;;2.33;0.88;;;19.50;99.90;;;;;;5014525;28;20467;-73
2022/05/11 10:45:09;;;;;;;3.63;0.98;;;19.60;99.90;;;;;;5015809;28;20433;-74
2022/05/11 10:47:53;;;;;;;5.60;1.05;;;19.60;99.90;;;;;;5015088;28;20061;-74
2022/05/11 10:50:36;;;;;;;8.77;1.08;;;19.50;99.90;;;;;;5014476;28;20081;-74
2022/05/11 10:53:18;;;;;;;3.78;0.90;;;19.60;99.90;;;;;;5014661;28;20085;-73
2022/05/11 10:56:03;;;;;;;2.38;0.70;;;19.70;99.90;;;;;;5015470;28;20057;-74
2022/05/11 10:59:09;;;;;;;3.58;0.90;;;19.80;99.90;;;;;;5016447;28;20054;-73
2022/05/11 11:02:00;;;;;;;2.53;0.95;;;19.80;99.90;;;;;;5016316;28;20438;-74
2022/05/11 11:04:28;;;;;;;5.03;1.25;;;19.70;99.90;;;;;;4995000;28;20062;-73
2022/05/11 11:07:28;;;;;;;2.45;0.98;;;19.60;99.90;;;;;;5014399;28;20092;-73
2022/05/11 11:10:13;;;;;;;3.22;1.10;;;19.80;99.90;;;;;;5015866;28;20059;-73
2022/05/11 11:12:39;;;;;;;3.55;0.82;;;19.80;99.90;;;;;;5015086;28;20057;-73
2022/05/11 11:15:18;;;;;;;3.08;0.95;;;19.90;99.90;;;;;;5015040;28;20124;-74
2022/05/11 11:17:46;;;;;;;6.95;1.27;;;19.90;99.90;;;;;;5015200;28;20038;-74
2022/05/11 11:20:17;;;;;;;4.18;0.90;;;19.90;99.90;;;;;;5013941;28;20085;-73
2022/05/11 11:23:04;;;;;;;3.42;0.98;;;20.00;99.90;;;;;;5015100;28;20054;-73
2022/05/11 11:25:52;;;;;;;2.63;1.15;;;20.10;99.90;;;;;;5013960;28;20056;-73
2022/05/11 11:28:23;;;;;;;3.63;1.20;;;20.10;99.90;;;;;;5015769;28;20045;-73
2022/05/11 11:30:58;;;;;;;4.18;0.80;;;20.10;99.90;;;;;;5013948;28;20482;-73
2022/05/11 11:33:25;;;;;;;3.90;0.90;;;20.20;99.90;;;;;;5015656;28;20111;-73
2022/05/11 11:36:03;;;;;;;4.55;1.10;;;20.10;99.90;;;;;;5014990;28;20054;-74
2022/05/11 11:38:45;;;;;;;2.85;1.15;;;20.10;99.90;;;;;;5013926;28;20050;-74
2022/05/11 11:41:11;;;;;;;6.97;1.20;;;20.10;99.90;;;;;;5014627;28;20107;-73
2022/05/11 11:44:00;;;;;;;3.28;1.00;;;20.20;99.90;;;;;;5013778;28;20133;-72
2022/05/11 11:46:38;;;;;;;2.42;0.93;;;20.20;99.90;;;;;;5013861;28;20375;-72
2022/05/11 11:49:09;;;;;;;7.68;1.52;;;20.30;99.90;;;;;;5013943;28;20360;-72
2022/05/11 11:52:00;;;;;;;3.10;0.70;;;20.20;99.90;;;;;;5013516;28;20045;-72
2022/05/11 11:54:28;;;;;;;4.63;1.02;;;20.30;99.90;;;;;;5014342;28;20057;-72
2022/05/11 11:56:55;;;;;;;3.22;1.05;;;20.40;99.90;;;;;;5013340;28;20046;-72
2022/05/11 11:59:44;;;;;;;2.85;0.63;;;20.60;99.90;;;;;;5013428;28;20042;-72
2022/05/11 12:02:31;;;;;;;2.22;0.70;;;20.60;99.90;;;;;;5014447;28;20050;-72
2022/05/11 12:04:59;;;;;;;2.55;0.90;;;20.60;99.90;;;;;;5015253;28;20046;-73
2022/05/11 12:16:25;;;;;;;3.72;0.88;;;20.70;99.90;;;;;;5013883;28;20490;-72
2022/05/11 12:18:52;;;;;;;2.22;0.80;;;20.70;99.90;;;;;;5013351;28;20115;-73
2022/05/11 12:21:33;;;;;;;3.67;1.00;;;20.80;99.90;;;;;;5014130;28;20124;-73
2022/05/11 12:24:01;;;;;;;3.65;1.00;;;20.80;99.90;;;;;;5014856;28;20101;-73
2022/05/11 12:26:35;;;;;;;4.63;1.40;;;20.70;99.90;;;;;;5014278;28;20045;-73
2022/05/11 12:32:08;;;;;;;4.63;1.15;;;20.90;99.90;;;;;;5013552;28;20180;-72
2022/05/11 12:34:44;;;;;;;4.55;1.00;;;20.80;99.90;;;;;;5013679;28;20052;-73
2022/05/11 12:37:22;;;;;;;5.10;1.52;;;20.80;99.90;;;;;;5013943;28;20125;-72
2022/05/11 12:39:55;;;;;;;3.10;0.90;;;20.90;99.90;;;;;;5013055;28;20053;-73
2022/05/11 12:42:42;;;;;;;3.38;1.40;;;20.90;99.90;;;;;;5013716;28;20061;-73
2022/05/11 12:45:12;;;;;;;6.93;1.23;;;21.00;99.90;;;;;;5014267;28;20391;-72
2022/05/11 12:48:04;;;;;;;2.88;1.02;;;21.00;99.90;;;;;;5013411;28;20505;-71
2022/05/11 12:50:47;;;;;;;6.40;1.20;;;21.00;99.90;;;;;;5012656;28;20401;-72
2022/05/11 12:53:15;;;;;;;7.07;1.05;;;21.00;99.90;;;;;;5013030;28;20092;-71
2022/05/11 12:55:44;;;;;;;4.38;1.30;;;21.10;99.90;;;;;;5012728;28;20366;-72
2022/05/11 12:58:20;;;;;;;5.75;1.20;;;21.10;99.90;;;;;;5013822;28;20475;-73
2022/05/11 13:00:45;;;;;;;;;;;21.10;99.90;;;;;;5013862;28;20050;-72
2022/05/11 13:03:22;;;;;;;4.17;1.00;;;21.20;99.90;;;;;;5012343;28;19935;-73
2022/05/11 13:05:48;;;;;;;3.80;1.10;;;21.30;99.90;;;;;;5013480;28;20649;-73
2022/05/11 13:08:14;;;;;;;3.08;1.10;;;21.30;99.90;;;;;;5013324;28;20371;-72
2022/05/11 13:10:41;;;;;;;3.35;1.00;;;21.20;99.90;;;;;;5012289;28;20049;-72
2022/05/11 13:13:15;;;;;;;2.33;0.90;;;21.10;99.90;;;;;;5012473;28;20475;-72
2022/05/11 13:15:45;;;;;;;3.25;1.02;;;21.10;99.90;;;;;;5013199;28;20090;-72
2022/05/11 13:18:28;;;;;;;10.13;1.30;;;21.10;99.90;;;;;;5013409;28;20056;-72
2022/05/11 13:20:58;;;;;;;5.50;1.00;;;21.20;99.90;;;;;;5013404;28;20103;-73
2022/05/11 13:23:50;;;;;;;3.47;1.05;;;21.30;99.90;;;;;;5013223;28;20355;-72
2022/05/11 13:26:38;;;;;;;4.10;0.93;;;21.20;99.90;;;;;;5007685;28;20107;-73
2022/05/11 13:29:16;;;;;;;2.83;0.85;;;21.20;99.90;;;;;;5012114;28;20095;-72
2022/05/11 13:31:42;;;;;;;6.30;1.30;;;21.10;99.90;;;;;;5012359;28;20054;-72
2022/05/11 13:34:29;;;;;;;2.22;1.10;;;21.20;99.90;;;;;;5028866;28;20394;-72
2022/05/11 13:36:56;;;;;;;2.75;1.02;;;21.20;99.90;;;;;;5012669;28;20386;-72
2022/05/11 13:39:28;;;;;;;5.13;1.40;;;21.20;99.90;;;;;;5012010;28;20043;-72
2022/05/11 13:41:55;;;;;;;5.03;1.30;;;21.30;99.90;;;;;;5012453;28;20141;-72
2022/05/11 13:44:43;;;;;;;4.10;1.42;;;21.40;99.90;;;;;;5012760;28;20061;-81
2022/05/11 13:50:50;;;;;;;5.65;1.20;;;21.50;99.90;;;;;;5012760;28;20046;-72